Santo Antonio, Brazil
Current Conditions -  °F | °C
As of 2:00 PM on Tuesday 21 Oct 2014 (Local Time) from SBNT Reporting Station
Scattered Clouds Scattered Clouds  
Wind Chill: 84°   Ceiling: Unl
Heat Index: 86°   Visibility: 6mi
Dew Point: 66°   Wind: 18mph
Humidity: 55%   Direction: 130°SE
Pressure: 29.88"   Gusts: NA
Location:  6.31°S, 35.48°W
Report Text: SBNT 211700Z 13016KT 9999 SCT020 SCT100 29/19 Q1012
Loading
Personal Weather Stations






























Interactive Weather Map
Tropical Storm Tracking
New forecast layout! Learn more

10-Day Weather Forecast

Advertisements
Track Severe Weather on mobile